Time;durP1;ratioP1;P1;durP2;ratioP2;P2;SDS_P1;SDS_P2;PMS_P1;PMS_P2;Temp;Humidity;BMP_temperature;BMP_pressure;BME280_temperature;BME280_humidity;BME280_pressure;Samples;Min_cycle;Max_cycle;Signal;HPM_P1;HPM_P2
2021/10/30 00:02:00;;;;;;;9.27;3.83;;;11.30;99.90;;;11.03;100.00;99449.53;4151653;28;20022;-76
2021/10/30 00:04:01;;;;;;;7.20;3.05;;;11.40;99.90;;;10.94;100.00;99429.56;4144584;28;20085;-77
2021/10/30 00:06:02;;;;;;;6.43;2.70;;;11.40;99.90;;;10.96;100.00;99430.19;4155080;28;20036;-77
2021/10/30 00:08:03;;;;;;;9.55;3.25;;;11.40;99.90;;;10.96;100.00;99418.81;4154965;28;20044;-77
2021/10/30 00:10:05;;;;;;;6.15;3.28;;;11.40;99.90;;;10.94;100.00;99419.00;4137201;28;20030;-77
2021/10/30 00:12:06;;;;;;;10.10;3.15;;;11.40;99.90;;;11.14;100.00;99418.34;4170272;28;20520;-77
2021/10/30 00:14:07;;;;;;;9.43;3.67;;;11.50;99.90;;;11.10;100.00;99424.03;4148837;28;20026;-77
2021/10/30 00:16:08;;;;;;;10.20;3.35;;;11.50;99.90;;;11.07;100.00;99416.47;4153581;28;20544;-77
2021/10/30 00:18:09;;;;;;;10.38;3.47;;;11.50;99.90;;;11.17;100.00;99415.34;4154972;28;20385;-77
2021/10/30 00:20:11;;;;;;;9.68;3.00;;;11.50;99.90;;;11.15;100.00;99398.84;4153745;28;20073;-77
2021/10/30 00:22:12;;;;;;;8.32;3.17;;;11.60;99.90;;;11.22;100.00;99394.44;4154822;28;20104;-77
2021/10/30 00:24:13;;;;;;;14.13;4.00;;;11.60;99.90;;;11.18;100.00;99401.94;4154540;28;20489;-77
2021/10/30 00:26:14;;;;;;;4.00;2.75;;;11.60;99.90;;;11.12;100.00;99402.69;4154799;28;20050;-77
2021/10/30 00:28:15;;;;;;;8.05;3.15;;;11.70;99.90;;;11.16;100.00;99398.69;4154758;28;20045;-77
2021/10/30 00:30:16;;;;;;;9.35;3.35;;;11.70;99.90;;;11.20;100.00;99397.25;4154723;28;20034;-77
2021/10/30 00:32:17;;;;;;;10.27;3.25;;;11.60;99.90;;;11.29;100.00;99392.69;4153460;28;20026;-77
2021/10/30 00:34:18;;;;;;;7.13;2.92;;;11.70;99.90;;;11.24;100.00;99390.59;4153329;28;20076;-77
2021/10/30 00:36:19;;;;;;;11.20;3.67;;;11.70;99.90;;;11.28;100.00;99389.22;4154543;28;20030;-77
2021/10/30 00:38:19;;;;;;;13.48;3.75;;;11.70;99.90;;;11.21;100.00;99376.97;4153313;28;20053;-77
2021/10/30 00:40:20;;;;;;;10.13;3.45;;;11.70;99.90;;;11.19;100.00;99373.72;4154228;28;20030;-77
2021/10/30 00:42:21;;;;;;;8.25;3.53;;;11.70;99.90;;;11.28;100.00;99368.09;4154549;28;20022;-77
2021/10/30 00:44:22;;;;;;;6.13;2.95;;;11.70;99.90;;;11.30;100.00;99373.16;4148516;28;20102;-77
2021/10/30 00:46:23;;;;;;;8.45;2.92;;;11.80;99.90;;;11.25;100.00;99367.66;4146260;28;20036;-77
2021/10/30 00:48:24;;;;;;;13.98;4.82;;;11.70;99.90;;;11.26;100.00;99361.38;4153127;28;20041;-77
2021/10/30 00:50:25;;;;;;;6.80;2.70;;;11.80;99.90;;;11.23;100.00;99365.22;4151427;28;20079;-77
2021/10/30 00:52:28;;;;;;;7.82;2.50;;;11.70;99.90;;;11.23;100.00;99359.94;4141248;28;20057;-77
2021/10/30 00:54:31;;;;;;;7.93;3.00;;;11.70;99.90;;;11.21;100.00;99355.84;4152859;28;20492;-77
2021/10/30 00:56:34;;;;;;;11.98;3.53;;;11.70;99.90;;;11.21;100.00;99350.56;4148007;28;20025;-77
2021/10/30 00:58:36;;;;;;;8.98;3.67;;;11.60;99.90;;;11.24;100.00;99353.66;4152975;28;20113;-77
2021/10/30 01:00:37;;;;;;;8.50;3.55;;;11.70;99.90;;;11.16;100.00;99337.16;4154303;28;20022;-77
2021/10/30 01:02:38;;;;;;;8.32;3.38;;;11.60;99.90;;;11.12;100.00;99352.56;4144137;28;20026;-77
2021/10/30 01:04:39;;;;;;;8.27;2.83;;;11.60;99.90;;;11.13;100.00;99354.19;4149840;28;20024;-77
2021/10/30 01:06:44;;;;;;;9.90;3.42;;;11.50;99.90;;;11.08;100.00;99336.28;4152817;28;20116;-77
2021/10/30 01:08:45;;;;;;;8.43;2.85;;;11.50;99.90;;;11.03;100.00;99337.88;4144732;28;20045;-77
2021/10/30 01:10:47;;;;;;;5.60;2.80;;;11.50;99.90;;;11.10;100.00;99338.75;4145750;28;20150;-77
2021/10/30 01:12:48;;;;;;;8.63;2.65;;;11.50;99.90;;;11.04;100.00;99321.06;4184910;28;20032;-77
2021/10/30 01:14:50;;;;;;;11.25;2.97;;;11.40;99.90;;;11.00;100.00;99328.53;4152889;28;20083;-77
2021/10/30 01:17:00;;;;;;;9.18;2.50;;;11.50;99.90;;;11.04;100.00;99323.69;4142285;28;20118;-77
2021/10/30 01:19:02;;;;;;;5.72;2.30;;;11.40;99.90;;;10.95;100.00;99309.84;4148157;28;20056;-77
2021/10/30 01:21:03;;;;;;;8.07;2.30;;;11.40;99.90;;;11.05;100.00;99309.50;4153878;28;20046;-76
2021/10/30 01:23:04;;;;;;;8.07;2.42;;;11.50;99.90;;;11.07;100.00;99303.00;4152915;28;20025;-77
2021/10/30 01:25:05;;;;;;;6.18;2.65;;;11.50;99.90;;;11.16;100.00;99300.22;4144641;28;20498;-77
2021/10/30 01:27:06;;;;;;;11.77;2.53;;;11.60;99.90;;;11.22;100.00;99296.78;4153871;28;20069;-77
2021/10/30 01:29:07;;;;;;;8.15;2.30;;;11.60;99.90;;;11.27;100.00;99300.47;4152305;28;20077;-77
2021/10/30 01:31:08;;;;;;;7.63;2.70;;;11.60;99.90;;;11.20;100.00;99291.69;4153975;28;20076;-77
2021/10/30 01:33:09;;;;;;;11.23;2.45;;;11.60;99.90;;;11.29;100.00;99290.53;4152662;28;20076;-77
2021/10/30 01:35:10;;;;;;;9.18;3.00;;;11.70;99.90;;;11.40;100.00;99297.09;4153736;28;20062;-77
2021/10/30 01:37:13;;;;;;;8.07;2.40;;;11.70;99.90;;;11.40;100.00;99291.81;4152403;28;20061;-77
2021/10/30 01:39:14;;;;;;;7.25;2.38;;;11.80;99.90;;;11.38;100.00;99296.47;4152307;28;20022;-77
2021/10/30 01:41:16;;;;;;;13.65;3.63;;;11.80;99.90;;;11.46;100.00;99291.84;4145551;28;20037;-77
2021/10/30 01:43:19;;;;;;;8.05;2.08;;;11.80;99.90;;;11.48;100.00;99279.25;4147331;28;20030;-77
2021/10/30 01:45:20;;;;;;;5.15;1.80;;;11.80;99.90;;;11.45;100.00;99278.81;4152295;28;20034;-77
2021/10/30 01:47:20;;;;;;;4.75;1.88;;;11.90;99.90;;;11.40;100.00;99270.69;4152161;28;20080;-77
2021/10/30 01:49:21;;;;;;;7.20;3.05;;;11.80;99.90;;;11.48;100.00;99278.41;4144272;28;20022;-77
2021/10/30 01:51:23;;;;;;;6.28;1.88;;;11.90;99.90;;;11.66;100.00;99281.34;4152397;28;20060;-77
2021/10/30 01:53:24;;;;;;;4.70;2.28;;;11.90;99.90;;;11.61;100.00;99278.47;4148862;28;20037;-77
2021/10/30 01:55:27;;;;;;;11.00;2.15;;;12.00;99.90;;;11.49;100.00;99264.22;4151950;28;20026;-77
2021/10/30 01:57:28;;;;;;;4.87;2.00;;;12.00;99.90;;;11.50;100.00;99260.53;4144085;28;20447;-77
2021/10/30 01:59:29;;;;;;;4.05;2.00;;;12.00;99.90;;;11.59;100.00;99259.34;4153292;28;20297;-77
2021/10/30 02:01:30;;;;;;;5.97;2.45;;;12.00;99.90;;;11.61;100.00;99249.44;4151905;28;20032;-77
2021/10/30 02:03:31;;;;;;;10.63;2.05;;;12.00;99.90;;;11.54;100.00;99252.03;4152896;28;20029;-77
2021/10/30 02:05:32;;;;;;;9.00;2.33;;;12.00;99.90;;;11.65;100.00;99253.28;4152082;28;20022;-77
2021/10/30 02:07:34;;;;;;;4.45;1.63;;;12.00;99.90;;;11.56;100.00;99238.63;4144867;28;20029;-77
2021/10/30 02:09:35;;;;;;;9.50;2.17;;;12.10;99.90;;;11.58;100.00;99233.97;4150605;28;20030;-77
2021/10/30 02:11:36;;;;;;;7.68;2.20;;;12.10;99.90;;;11.68;100.00;99228.31;4153177;28;20037;-77
2021/10/30 02:13:37;;;;;;;9.38;2.00;;;12.10;99.90;;;11.73;100.00;99225.91;4151999;28;20026;-77
2021/10/30 02:15:38;;;;;;;5.57;2.13;;;12.10;99.90;;;11.68;100.00;99224.66;4144128;28;20033;-77
2021/10/30 02:17:39;;;;;;;5.45;2.05;;;12.10;99.90;;;11.60;100.00;99218.75;4147329;28;20030;-77
2021/10/30 02:19:40;;;;;;;7.57;2.20;;;12.10;99.90;;;11.60;100.00;99214.28;4152907;28;20021;-77
2021/10/30 02:21:41;;;;;;;7.05;1.85;;;12.20;99.90;;;11.59;100.00;99222.38;4153081;28;20029;-77
2021/10/30 02:23:42;;;;;;;6.22;2.40;;;12.10;99.90;;;11.65;100.00;99211.03;4151354;28;20093;-77
2021/10/30 02:25:43;;;;;;;9.25;2.33;;;12.10;99.90;;;11.64;100.00;99214.69;4147925;28;20136;-77
2021/10/30 02:27:44;;;;;;;4.03;1.60;;;12.20;99.90;;;11.64;100.00;99198.84;4151654;28;20033;-77
2021/10/30 02:29:46;;;;;;;10.02;1.90;;;12.10;99.90;;;11.66;100.00;99187.06;4141236;28;20033;-77
2021/10/30 02:31:47;;;;;;;6.30;2.13;;;12.10;99.90;;;11.68;100.00;99184.22;4151689;28;20060;-77
2021/10/30 02:33:47;;;;;;;13.10;2.20;;;12.10;99.90;;;11.62;100.00;99179.72;4147628;28;20052;-77
2021/10/30 02:35:48;;;;;;;5.55;1.95;;;12.10;99.90;;;11.62;100.00;99177.91;4151342;28;20033;-77
2021/10/30 02:37:50;;;;;;;8.88;2.50;;;12.10;99.90;;;11.60;100.00;99169.38;4152825;28;20061;-77
2021/10/30 02:39:50;;;;;;;6.65;2.40;;;12.20;99.90;;;11.57;100.00;99169.78;4152554;28;20025;-77
2021/10/30 02:41:52;;;;;;;5.05;1.70;;;12.20;99.90;;;11.65;100.00;99164.31;4135279;28;20100;-77
2021/10/30 02:43:52;;;;;;;6.30;2.20;;;12.20;99.90;;;11.79;100.00;99169.63;4152623;28;20044;-77
2021/10/30 02:45:53;;;;;;;8.50;1.75;;;12.20;99.90;;;11.83;100.00;99155.81;4152813;28;20034;-77
2021/10/30 02:47:54;;;;;;;11.90;2.83;;;12.30;99.90;;;11.89;100.00;99164.75;4151544;28;20061;-77
2021/10/30 02:49:55;;;;;;;9.40;2.70;;;12.30;99.90;;;11.77;100.00;99172.47;4152677;28;20065;-77
2021/10/30 02:51:56;;;;;;;9.32;2.80;;;12.30;99.90;;;11.79;100.00;99157.25;4151128;28;20032;-76
2021/10/30 02:53:57;;;;;;;7.25;3.67;;;12.40;99.90;;;11.85;100.00;99166.19;4152392;28;20045;-77
2021/10/30 02:55:58;;;;;;;8.65;3.10;;;12.40;99.90;;;11.81;100.00;99173.72;4151242;28;20510;-77
2021/10/30 02:57:59;;;;;;;6.82;2.35;;;12.40;99.90;;;11.85;100.00;99169.66;4152556;28;20033;-77
2021/10/30 03:00:00;;;;;;;6.40;2.03;;;12.40;99.90;;;11.90;100.00;99167.22;4151240;28;20022;-77
2021/10/30 03:02:01;;;;;;;6.93;2.30;;;12.50;99.90;;;11.82;100.00;99161.31;4147663;28;20029;-77
2021/10/30 03:04:02;;;;;;;8.50;2.92;;;12.40;99.90;;;11.92;100.00;99170.44;4143158;28;20018;-78
2021/10/30 03:06:03;;;;;;;7.10;2.30;;;12.50;99.90;;;11.98;100.00;99168.81;4151310;28;20029;-78
2021/10/30 03:08:04;;;;;;;3.65;2.20;;;12.50;99.90;;;11.95;100.00;99166.59;4152313;28;20040;-77
2021/10/30 03:10:07;;;;;;;10.15;2.40;;;12.50;99.90;;;11.97;100.00;99154.81;4138023;28;20034;-78
2021/10/30 03:12:08;;;;;;;10.38;2.28;;;12.60;99.90;;;11.98;100.00;99148.50;4142866;28;20026;-77
2021/10/30 03:14:09;;;;;;;7.60;3.10;;;12.60;99.90;;;11.93;100.00;99156.22;4151191;28;20026;-77
2021/10/30 03:16:10;;;;;;;9.50;3.00;;;12.60;99.90;;;12.04;100.00;99166.19;4148003;28;20026;-78
2021/10/30 03:18:11;;;;;;;9.07;2.55;;;12.60;99.90;;;12.06;100.00;99160.72;4139483;28;20034;-77
2021/10/30 03:20:14;;;;;;;9.13;2.92;;;12.60;99.90;;;12.05;100.00;99159.06;4151222;28;20105;-77
2021/10/30 03:22:15;;;;;;;8.57;3.72;;;12.70;99.90;;;12.09;100.00;99149.72;4146196;28;20026;-77
2021/10/30 03:24:17;;;;;;;6.88;2.53;;;12.70;99.90;;;12.11;100.00;99148.50;4152013;28;20070;-78
2021/10/30 03:26:18;;;;;;;10.60;3.58;;;12.70;99.90;;;12.12;100.00;99144.84;4151078;28;20041;-77
2021/10/30 03:28:19;;;;;;;9.93;3.92;;;12.80;99.90;;;12.13;100.00;99135.06;4141260;28;20142;-77
2021/10/30 03:30:20;;;;;;;5.20;2.85;;;12.70;99.90;;;12.25;100.00;99138.72;4145535;28;20073;-78
2021/10/30 03:32:21;;;;;;;8.55;3.08;;;12.80;99.90;;;12.27;100.00;99142.00;4150924;28;20030;-77
2021/10/30 03:34:22;;;;;;;11.98;3.35;;;12.80;99.90;;;12.29;100.00;99139.13;4152099;28;20046;-77
2021/10/30 03:36:23;;;;;;;14.30;4.00;;;12.90;99.90;;;12.34;100.00;99147.25;4155647;28;20030;-77
2021/10/30 03:38:24;;;;;;;8.70;3.95;;;12.80;99.90;;;12.37;100.00;99130.97;4155344;28;20393;-77
2021/10/30 03:40:25;;;;;;;15.32;3.97;;;12.90;99.90;;;12.37;100.00;99131.78;4154336;28;20018;-78
2021/10/30 03:42:26;;;;;;;10.52;3.15;;;13.00;99.90;;;12.47;100.00;99142.75;4154608;28;20041;-77
2021/10/30 03:44:27;;;;;;;10.98;3.33;;;13.00;99.90;;;12.46;100.00;99148.25;4155457;28;20026;-78
2021/10/30 03:46:28;;;;;;;7.40;4.28;;;13.00;99.90;;;12.50;100.00;99145.00;4155439;28;20022;-78
2021/10/30 03:48:29;;;;;;;12.27;4.25;;;13.00;99.90;;;12.55;100.00;99154.94;4154209;28;20033;-78
2021/10/30 03:50:30;;;;;;;8.52;4.78;;;13.00;99.90;;;12.45;100.00;99139.53;4152980;28;20050;-78
2021/10/30 03:52:31;;;;;;;14.13;5.10;;;13.10;99.90;;;12.47;100.00;99145.41;4144294;28;20084;-78
2021/10/30 03:54:32;;;;;;;14.02;4.85;;;13.10;99.90;;;12.42;100.00;99144.41;4155143;28;20033;-77
2021/10/30 03:56:32;;;;;;;15.65;5.72;;;13.10;99.90;;;12.42;100.00;99139.13;4153995;28;20029;-78
2021/10/30 03:58:34;;;;;;;14.63;6.43;;;13.10;99.90;;;12.51;100.00;99143.16;4154173;28;20037;-77
2021/10/30 04:00:35;;;;;;;8.85;5.15;;;13.20;99.90;;;12.54;100.00;99148.03;4154137;28;20100;-78
2021/10/30 04:02:36;;;;;;;13.77;6.28;;;13.20;99.90;;;12.62;100.00;99155.75;4146223;28;20056;-78
2021/10/30 04:04:37;;;;;;;12.95;6.75;;;13.20;99.90;;;12.58;100.00;99149.22;4149302;28;20033;-78
2021/10/30 04:06:37;;;;;;;14.25;7.15;;;13.20;99.90;;;12.64;100.00;99167.72;4155197;28;20416;-78
2021/10/30 04:08:39;;;;;;;15.95;6.78;;;13.20;99.90;;;12.62;100.00;99155.75;4154842;28;20030;-78
2021/10/30 04:10:39;;;;;;;15.90;6.05;;;13.20;99.90;;;12.81;100.00;99152.25;4153751;28;20026;-78
2021/10/30 04:12:41;;;;;;;14.43;6.78;;;13.30;99.90;;;12.72;100.00;99162.22;4154981;28;20061;-78
2021/10/30 04:14:41;;;;;;;18.83;7.25;;;13.30;99.90;;;12.79;100.00;99159.56;4154865;28;20033;-77
2021/10/30 04:16:43;;;;;;;15.65;7.70;;;13.30;99.90;;;12.83;100.00;99157.31;4154977;28;20034;-77
2021/10/30 04:18:44;;;;;;;21.85;8.70;;;13.30;99.90;;;12.77;100.00;99158.97;4153780;28;20124;-78
2021/10/30 04:20:45;;;;;;;12.48;7.55;;;13.40;99.90;;;12.71;100.00;99151.84;4153743;28;20018;-78
2021/10/30 04:22:46;;;;;;;18.58;8.80;;;13.30;99.90;;;12.72;100.00;99156.13;4154846;28;20033;-78
2021/10/30 04:24:47;;;;;;;20.95;8.18;;;13.40;99.90;;;12.68;100.00;99157.56;4154759;28;20030;-77
2021/10/30 04:26:48;;;;;;;13.65;7.45;;;13.30;99.90;;;12.72;100.00;99156.13;4154863;28;20045;-78
2021/10/30 04:28:49;;;;;;;22.00;8.57;;;13.40;99.90;;;12.74;100.00;99154.09;4154972;28;20022;-78
2021/10/30 04:30:49;;;;;;;19.83;8.50;;;13.30;99.90;;;12.75;100.00;99153.84;4153480;28;20528;-78
2021/10/30 04:32:50;;;;;;;18.52;8.88;;;13.40;99.90;;;12.76;100.00;99159.97;4154894;28;20108;-78
2021/10/30 04:35:05;;;;;;;17.10;8.25;;;13.40;99.90;;;12.81;100.00;99156.72;4153621;28;20065;-78
2021/10/30 04:37:13;;;;;;;18.73;9.00;;;13.40;99.90;;;12.77;100.00;99165.06;4153587;28;20034;-78
2021/10/30 04:39:15;;;;;;;13.48;7.90;;;13.40;99.90;;;12.80;100.00;99165.66;4153466;28;20030;-78
2021/10/30 04:41:17;;;;;;;20.33;8.73;;;13.40;99.90;;;12.87;100.00;99167.28;4153624;28;20092;-77
2021/10/30 04:43:18;;;;;;;16.40;9.02;;;13.50;99.90;;;12.77;100.00;99164.25;4154660;28;20030;-78
2021/10/30 04:45:19;;;;;;;13.93;7.65;;;13.40;99.90;;;12.86;100.00;99170.13;4137009;28;20130;-78
2021/10/30 04:47:20;;;;;;;20.80;8.57;;;13.40;99.90;;;12.80;100.00;99165.66;4154709;28;20034;-78
2021/10/30 04:49:21;;;;;;;12.77;8.15;;;13.40;99.90;;;12.80;100.00;99168.31;4153383;28;20064;-78
2021/10/30 04:51:22;;;;;;;14.32;7.80;;;13.40;99.90;;;12.80;100.00;99163.00;4154418;28;20057;-78
2021/10/30 04:53:23;;;;;;;15.65;8.30;;;13.40;99.90;;;12.83;100.00;99168.72;4136580;28;20065;-78
2021/10/30 04:55:24;;;;;;;17.35;8.10;;;13.40;99.90;;;12.89;100.00;99177.63;4154429;28;20061;-78
2021/10/30 04:57:25;;;;;;;18.50;9.00;;;13.40;99.90;;;12.83;100.00;99178.47;4154266;28;20026;-78
2021/10/30 04:59:26;;;;;;;14.55;8.77;;;13.40;99.90;;;12.83;100.00;99174.00;4154253;28;20033;-78
2021/10/30 05:01:27;;;;;;;15.98;8.80;;;13.40;99.90;;;12.75;100.00;99177.66;4154230;28;20543;-78
2021/10/30 05:03:28;;;;;;;16.08;8.32;;;13.40;99.90;;;12.81;100.00;99186.63;4140794;28;20026;-78
2021/10/30 05:05:29;;;;;;;20.65;9.73;;;13.30;99.90;;;12.75;100.00;99180.31;4147420;28;20116;-78
2021/10/30 05:07:30;;;;;;;18.55;8.85;;;13.40;99.90;;;12.83;100.00;99184.59;4146709;28;20057;-78
2021/10/30 05:09:31;;;;;;;16.10;9.15;;;13.40;99.90;;;12.77;100.00;99183.59;4152600;28;20037;-78
2021/10/30 05:11:32;;;;;;;12.93;7.13;;;13.40;99.90;;;12.79;100.00;99175.44;4153244;28;20029;-78
2021/10/30 05:13:34;;;;;;;16.25;8.45;;;13.40;99.90;;;12.77;100.00;99183.59;4153007;28;20026;-78
2021/10/30 05:15:35;;;;;;;21.92;8.77;;;13.40;99.90;;;12.75;100.00;99187.47;4145255;28;20038;-78
2021/10/30 05:17:37;;;;;;;17.77;8.63;;;13.30;99.90;;;12.75;100.00;99182.19;4149550;28;20036;-78
2021/10/30 05:19:37;;;;;;;15.73;8.10;;;13.30;99.90;;;12.78;100.00;99177.25;4153883;28;20030;-78
2021/10/30 05:21:38;;;;;;;14.90;8.73;;;13.40;99.90;;;12.82;100.00;99188.25;4152893;28;20088;-78
2021/10/30 05:23:40;;;;;;;13.82;8.55;;;13.30;99.90;;;12.81;100.00;99189.28;4145855;28;20056;-78
2021/10/30 05:25:41;;;;;;;13.85;8.35;;;13.40;99.90;;;12.77;100.00;99185.41;4152712;28;20104;-78
2021/10/30 05:27:41;;;;;;;16.02;8.80;;;13.40;99.90;;;12.75;100.00;99176.88;4151229;28;20030;-78
2021/10/30 05:29:43;;;;;;;15.18;7.88;;;13.40;99.90;;;12.76;100.00;99178.50;4141404;28;20026;-78
2021/10/30 05:31:43;;;;;;;15.85;8.65;;;13.40;99.90;;;12.71;100.00;99173.00;4153771;28;20104;-78
2021/10/30 05:33:45;;;;;;;13.40;8.45;;;13.40;99.90;;;12.69;100.00;99177.72;4152553;28;20030;-78
2021/10/30 05:35:46;;;;;;;18.10;8.80;;;13.40;99.90;;;12.74;100.00;99180.53;4151882;28;20112;-78
2021/10/30 05:37:47;;;;;;;11.13;7.90;;;13.30;99.90;;;12.66;100.00;99170.19;4153831;28;20121;-78
2021/10/30 05:39:48;;;;;;;14.60;8.23;;;13.30;99.90;;;12.72;100.00;99172.00;4153533;28;20170;-78
2021/10/30 05:41:49;;;;;;;16.25;8.30;;;13.30;99.90;;;12.76;100.00;99178.50;4152406;28;20045;-78
2021/10/30 05:43:50;;;;;;;20.50;11.73;;;13.30;99.90;;;12.70;100.00;99185.44;4150639;28;20089;-78
2021/10/30 05:45:52;;;;;;;19.05;10.57;;;13.30;99.90;;;12.38;100.00;99280.69;4140845;28;20022;-78
2021/10/30 05:47:53;;;;;;;8.05;4.18;;;13.30;99.90;;;12.40;100.00;99257.47;4153598;28;20026;-78
2021/10/30 05:49:54;;;;;;;5.63;2.45;;;13.20;99.90;;;12.21;100.00;99254.63;4152287;28;20585;-78
2021/10/30 05:51:55;;;;;;;4.93;1.75;;;13.00;99.90;;;11.88;100.00;99248.50;4152268;28;20034;-79
2021/10/30 05:53:56;;;;;;;2.25;1.70;;;12.80;99.90;;;11.92;100.00;99254.19;4153199;28;20042;-79
2021/10/30 05:55:57;;;;;;;2.35;1.50;;;12.80;99.90;;;11.84;100.00;99252.56;4153425;28;20034;-79
2021/10/30 05:57:57;;;;;;;3.83;1.50;;;12.70;99.90;;;11.84;100.00;99260.50;4152899;28;20129;-79
2021/10/30 05:59:58;;;;;;;2.28;1.50;;;12.60;99.90;;;11.87;100.00;99267.19;4152095;28;20080;-79
2021/10/30 06:01:59;;;;;;;3.15;1.60;;;12.60;99.90;;;11.84;100.00;99268.41;4149755;28;20482;-79
2021/10/30 06:04:00;;;;;;;4.57;1.52;;;12.60;99.90;;;11.86;100.00;99268.19;4142571;28;20025;-79
2021/10/30 06:06:02;;;;;;;2.92;1.50;;;12.60;99.90;;;11.79;100.00;99278.78;4153176;28;20026;-79
2021/10/30 06:08:03;;;;;;;3.10;1.20;;;12.50;99.90;;;11.78;100.00;99286.88;4151806;28;20042;-79
2021/10/30 06:10:05;;;;;;;2.75;1.30;;;12.50;99.90;;;11.71;100.00;99283.44;4140236;28;20623;-79
2021/10/30 06:12:06;;;;;;;2.08;1.20;;;12.50;99.90;;;11.65;100.00;99275.22;4152040;28;20087;-78
2021/10/30 06:14:10;;;;;;;2.90;1.52;;;12.50;99.90;;;11.70;100.00;99285.25;4146729;28;20022;-79
2021/10/30 06:16:11;;;;;;;2.80;1.30;;;12.50;99.90;;;11.61;100.00;99291.69;4151544;28;20025;-78
2021/10/30 06:18:12;;;;;;;3.13;1.20;;;12.40;99.90;;;11.62;100.00;99290.66;4153168;28;20459;-79
2021/10/30 06:20:13;;;;;;;1.38;0.82;;;12.40;99.90;;;11.77;100.00;99293.19;4151932;28;20402;-79
2021/10/30 06:22:14;;;;;;;1.35;0.90;;;12.40;99.90;;;11.80;100.00;99295.44;4151729;28;20026;-79
2021/10/30 06:24:15;;;;;;;3.05;1.05;;;12.50;99.90;;;11.64;100.00;99289.47;4152604;28;20045;-78
2021/10/30 06:26:17;;;;;;;2.03;0.95;;;12.50;99.90;;;11.65;100.00;99300.81;4153037;28;20575;-78
2021/10/30 06:28:18;;;;;;;4.57;1.95;;;12.40;99.90;;;11.43;100.00;99302.78;4152867;28;20481;-79
2021/10/30 06:30:19;;;;;;;2.95;0.95;;;12.30;99.90;;;11.50;100.00;99303.63;4151653;28;20051;-79
2021/10/30 06:32:20;;;;;;;1.92;1.08;;;12.30;99.90;;;11.40;100.00;99305.81;4135219;28;20034;-79
2021/10/30 06:34:21;;;;;;;1.60;0.82;;;12.30;99.90;;;11.40;100.00;99312.94;4151682;28;20037;-79
2021/10/30 06:36:22;;;;;;;1.13;1.00;;;12.20;99.90;;;11.41;100.00;99302.16;4152811;28;20116;-78
2021/10/30 06:38:23;;;;;;;1.25;0.90;;;12.20;99.90;;;11.24;100.00;99295.59;4152476;28;20026;-78
2021/10/30 06:40:25;;;;;;;1.15;0.77;;;12.10;99.90;;;11.42;100.00;99300.34;4152754;28;20517;-79
2021/10/30 06:42:25;;;;;;;1.40;0.80;;;12.10;99.90;;;11.34;100.00;99293.41;4151504;28;20555;-79
2021/10/30 06:44:27;;;;;;;3.60;1.27;;;12.10;99.90;;;11.38;100.00;99293.84;4151543;28;20037;-79
2021/10/30 06:46:28;;;;;;;2.30;0.70;;;12.10;99.90;;;11.48;100.00;99289.81;4151367;28;20382;-78
2021/10/30 06:48:29;;;;;;;1.08;0.60;;;12.10;99.90;;;11.63;100.00;99277.28;4151359;28;20029;-78
2021/10/30 06:50:31;;;;;;;1.08;0.60;;;12.10;99.90;;;11.68;100.00;99271.38;4151347;28;20121;-78
2021/10/30 06:52:40;;;;;;;0.65;0.55;;;12.20;99.90;;;11.72;100.00;99270.00;4152376;28;20045;-78
2021/10/30 06:54:41;;;;;;;0.70;0.60;;;12.20;99.90;;;11.63;100.00;99272.00;4152208;28;20030;-78
2021/10/30 06:56:42;;;;;;;0.77;0.70;;;12.20;99.90;;;11.62;100.00;99259.78;4151006;28;20045;-78
2021/10/30 06:58:43;;;;;;;0.80;0.63;;;12.20;99.90;;;11.57;100.00;99261.41;4152399;28;20495;-78
2021/10/30 07:00:45;;;;;;;0.68;0.60;;;12.10;99.90;;;11.52;100.00;99279.66;4151252;28;20026;-78
2021/10/30 07:02:47;;;;;;;2.40;0.65;;;12.10;99.90;;;11.28;100.00;99282.81;4141378;28;20030;-78
2021/10/30 07:04:48;;;;;;;2.85;0.70;;;12.00;99.90;;;11.17;100.00;99275.44;4167363;28;20193;-78
2021/10/30 07:06:51;;;;;;;0.82;0.70;;;11.90;99.90;;;11.28;100.00;99285.44;4137954;28;20026;-78
2021/10/30 07:08:52;;;;;;;3.17;1.55;;;11.80;99.90;;;11.27;100.00;99286.44;4150434;28;20026;-78
2021/10/30 07:10:53;;;;;;;2.75;0.80;;;11.80;99.90;;;11.13;100.00;99295.31;4144282;28;20037;-78
2021/10/30 07:12:53;;;;;;;1.00;0.60;;;11.80;99.90;;;11.19;100.00;99305.91;4152211;28;20109;-78
2021/10/30 07:14:55;;;;;;;1.50;0.80;;;11.70;99.90;;;11.22;100.00;99297.59;4150921;28;20038;-78
2021/10/30 07:16:57;;;;;;;1.92;0.77;;;11.70;99.90;;;11.19;100.00;99303.28;4141224;28;20033;-78
2021/10/30 07:18:58;;;;;;;1.75;0.80;;;11.70;99.90;;;11.17;100.00;99312.41;4144480;28;20104;-78
2021/10/30 07:20:59;;;;;;;1.10;0.85;;;11.80;99.90;;;11.24;100.00;99318.50;4152106;28;20485;-78
2021/10/30 07:23:00;;;;;;;2.83;1.63;;;11.80;99.90;;;11.23;100.00;99316.91;4151999;28;20037;-78
2021/10/30 07:25:02;;;;;;;3.10;1.98;;;11.80;99.90;;;11.26;100.00;99324.44;4150771;28;20446;-78
2021/10/30 07:27:03;;;;;;;1.95;1.50;;;11.90;99.90;;;11.33;100.00;99327.91;4144216;28;20340;-78
2021/10/30 07:29:05;;;;;;;1.83;1.55;;;11.90;99.90;;;11.43;100.00;99323.91;4147416;28;20028;-78
2021/10/30 07:31:05;;;;;;;1.63;1.27;;;12.00;99.90;;;11.44;100.00;99330.03;4150878;28;20038;-78
2021/10/30 07:33:06;;;;;;;2.78;1.30;;;12.00;99.90;;;11.49;100.00;99338.97;4141917;28;20095;-78
2021/10/30 07:35:08;;;;;;;2.88;1.05;;;12.10;99.90;;;11.52;100.00;99345.69;4150832;28;20041;-78
2021/10/30 07:37:10;;;;;;;2.38;0.90;;;12.10;99.90;;;11.50;100.00;99356.44;4150647;28;20030;-78
2021/10/30 07:39:11;;;;;;;1.52;0.85;;;12.10;99.90;;;11.45;100.00;99358.84;4151844;28;20472;-78
2021/10/30 07:41:12;;;;;;;1.60;1.00;;;12.10;99.90;;;11.52;100.00;99369.44;4152246;28;20018;-78
2021/10/30 07:43:13;;;;;;;2.33;1.13;;;12.20;99.90;;;11.50;100.00;99371.44;4150879;28;20026;-78
2021/10/30 07:45:14;;;;;;;1.10;1.00;;;12.20;99.90;;;11.56;100.00;99370.66;4151999;28;20084;-78
2021/10/30 07:47:15;;;;;;;4.13;1.63;;;12.20;99.90;;;11.56;100.00;99376.78;4150799;28;20538;-78
2021/10/30 07:49:17;;;;;;;2.50;1.08;;;12.20;99.90;;;11.52;100.00;99386.13;4151863;28;20033;-78
2021/10/30 07:51:18;;;;;;;1.83;1.08;;;12.30;99.90;;;11.53;100.00;99389.53;4150677;28;20571;-78
2021/10/30 07:53:19;;;;;;;4.30;0.95;;;12.20;99.90;;;11.42;100.00;99392.75;4151550;28;20046;-78
2021/10/30 07:55:21;;;;;;;2.70;1.25;;;12.30;99.90;;;11.36;100.00;99396.97;4151571;28;20057;-78
2021/10/30 07:57:22;;;;;;;1.80;1.50;;;12.20;99.90;;;11.54;100.00;99393.84;4150649;28;20026;-79
2021/10/30 07:59:23;;;;;;;1.80;1.33;;;12.20;99.90;;;11.51;100.00;99399.50;4150560;28;20033;-78
2021/10/30 08:01:24;;;;;;;4.70;1.10;;;12.20;99.90;;;11.33;100.00;99407.94;4151821;28;20054;-79
2021/10/30 08:03:25;;;;;;;2.63;1.05;;;12.20;99.90;;;11.42;100.00;99400.66;4137237;28;20062;-79
2021/10/30 08:05:26;;;;;;;5.10;1.00;;;12.20;99.90;;;11.55;100.00;99391.00;4150760;28;20094;-79
2021/10/30 08:07:27;;;;;;;1.10;0.90;;;12.30;99.90;;;11.68;100.00;99400.81;4150611;28;20073;-79
2021/10/30 08:09:28;;;;;;;1.90;0.80;;;12.30;99.90;;;11.67;100.00;99407.13;4150411;28;20572;-78
2021/10/30 08:11:29;;;;;;;1.75;0.90;;;12.40;99.90;;;11.76;100.00;99418.38;4150536;28;20026;-78
2021/10/30 08:13:30;;;;;;;2.75;1.00;;;12.40;99.90;;;11.68;100.00;99427.22;4166944;28;20108;-79
2021/10/30 08:15:31;;;;;;;2.45;1.05;;;12.50;99.90;;;11.76;100.00;99421.00;4166980;28;20022;-79
2021/10/30 08:17:33;;;;;;;2.13;1.20;;;12.40;99.90;;;11.74;100.00;99415.91;4146640;28;20062;-79
2021/10/30 08:19:34;;;;;;;2.33;1.00;;;12.40;99.90;;;11.78;100.00;99422.44;4134280;28;20027;-79
2021/10/30 08:21:35;;;;;;;3.28;1.00;;;12.50;99.90;;;11.87;100.00;99426.56;4152410;28;20033;-79
2021/10/30 08:23:36;;;;;;;4.60;1.63;;;12.50;99.90;;;11.90;100.00;99434.09;4154459;28;20030;-79